Choconut Center, New York
Current Conditions -  °F | °C
As of 11:10 AM on Sunday 25 Jan 2015 (Local Time) from KBGM Reporting Station
Few Clouds Few Clouds  
Wind Chill: 10°   Ceiling: Unl
Heat Index: 21°   Visibility: 10mi
Dew Point: 10°   Wind: 10mph
Humidity: 63%   Direction: 320°NW
Pressure: 29.75"   Gusts: 18mph
Location:  42.1759°N, 75.9402°W
Report Text: KBGM 251610Z 32009G16KT 10SM FEW017 FEW024 M06/M12 A2975 RMK AO2 T10611122
Loading
Personal Weather Stations






























Interactive Weather Map New forecast layout! Learn more

10-Day Weather Forecast

Advertisements
Track Severe Weather on mobile